createdAt,value
2023-04-24T00:02:19.894Z,13.02
2023-04-24T00:04:47.508Z,17.88
2023-04-24T00:07:15.559Z,16.92
2023-04-24T00:09:43.148Z,18.42
2023-04-24T00:12:11.199Z,17.42
2023-04-24T00:14:39.938Z,14.38
2023-04-24T00:17:07.281Z,16.77
2023-04-24T00:19:34.515Z,15.60
2023-04-24T00:22:01.479Z,14.80
2023-04-24T00:24:28.900Z,17.17
2023-04-24T00:26:55.943Z,14.27
2023-04-24T00:29:23.243Z,18.90
2023-04-24T00:31:50.767Z,16.48
2023-04-24T00:34:17.758Z,13.43
2023-04-24T00:36:45.413Z,18.70
2023-04-24T00:39:12.499Z,14.93
2023-04-24T00:41:39.894Z,18.60
2023-04-24T00:44:08.500Z,17.75
2023-04-24T00:46:37.345Z,19.75
2023-04-24T00:49:06.099Z,19.15
2023-04-24T00:51:34.079Z,17.67
2023-04-24T00:54:02.444Z,21.83
2023-04-24T00:56:30.282Z,13.30
2023-04-24T00:58:57.622Z,14.95
2023-04-24T01:01:25.422Z,15.85
2023-04-24T01:03:54.821Z,12.90
2023-04-24T01:06:23.507Z,17.55
2023-04-24T01:08:50.891Z,15.23
2023-04-24T01:11:18.917Z,14.75
2023-04-24T01:13:46.992Z,15.23
2023-04-24T01:16:15.936Z,13.73
2023-04-24T01:18:43.921Z,12.25
2023-04-24T01:21:15.315Z,15.00
2023-04-24T01:23:42.539Z,15.73
2023-04-24T01:26:09.787Z,18.10
2023-04-24T01:28:37.141Z,17.10
2023-04-24T01:31:06.641Z,15.98
2023-04-24T01:33:33.803Z,18.45
2023-04-24T01:36:02.155Z,16.63
2023-04-24T01:38:29.518Z,15.40
2023-04-24T01:40:56.883Z,15.82
2023-04-24T01:43:25.944Z,16.00
2023-04-24T01:45:52.959Z,15.23
2023-04-24T01:48:19.974Z,17.08
2023-04-24T01:50:47.138Z,13.93
2023-04-24T01:53:16.366Z,15.02
2023-04-24T01:55:44.144Z,16.25
2023-04-24T01:58:13.793Z,13.20
2023-04-24T02:00:41.629Z,19.05
2023-04-24T02:03:09.878Z,13.80
2023-04-24T02:05:36.964Z,13.52
2023-04-24T02:08:07.266Z,12.48
2023-04-24T02:10:38.203Z,13.05
2023-04-24T02:13:06.126Z,13.20
2023-04-24T02:15:33.660Z,12.40
2023-04-24T02:18:00.999Z,10.52
2023-04-24T02:20:28.721Z,13.00
2023-04-24T02:22:56.239Z,15.68
2023-04-24T02:25:23.429Z,14.98
2023-04-24T02:27:51.311Z,15.60
2023-04-24T02:30:19.436Z,15.40
2023-04-24T02:32:47.254Z,11.48
2023-04-24T02:35:15.621Z,13.00
2023-04-24T02:37:43.622Z,12.98
2023-04-24T02:40:14.098Z,13.93
2023-04-24T02:42:42.021Z,12.25
2023-04-24T02:45:10.279Z,13.43
2023-04-24T02:47:38.621Z,11.93
2023-04-24T02:50:07.006Z,12.38
2023-04-24T02:52:35.899Z,13.68
2023-04-24T02:55:04.335Z,11.57
2023-04-24T02:57:33.282Z,12.23
2023-04-24T03:00:00.840Z,14.05
2023-04-24T03:02:31.108Z,11.98
2023-04-24T03:04:58.361Z,15.82
2023-04-24T03:07:26.462Z,13.23
2023-04-24T03:09:53.864Z,10.05
2023-04-24T03:12:21.614Z,13.85
2023-04-24T03:14:49.540Z,10.20
2023-04-24T03:17:16.862Z,13.48
2023-04-24T03:19:45.044Z,11.95
2023-04-24T03:22:14.211Z,16.40
2023-04-24T03:24:41.996Z,10.18
2023-04-24T03:27:10.299Z,14.15
2023-04-24T03:30:04.295Z,10.43
2023-04-24T03:32:43.452Z,12.40
2023-04-24T03:35:14.034Z,13.73
2023-04-24T03:37:41.697Z,13.00
2023-04-24T03:40:31.580Z,13.90
2023-04-24T03:42:59.855Z,12.98
2023-04-24T03:45:27.539Z,11.68
2023-04-24T03:47:55.381Z,11.00
2023-04-24T03:50:22.902Z,14.13
2023-04-24T03:52:51.224Z,13.95
2023-04-24T03:55:29.967Z,12.98
2023-04-24T03:57:57.245Z,13.55
2023-04-24T04:00:24.235Z,11.68
2023-04-24T04:03:03.826Z,10.18
2023-04-24T04:05:31.553Z,13.05
2023-04-24T04:07:59.321Z,10.75
2023-04-24T04:10:29.633Z,12.25
2023-04-24T04:12:56.922Z,9.52
2023-04-24T04:15:23.829Z,10.82
2023-04-24T04:17:52.168Z,10.52
2023-04-24T04:20:20.090Z,9.88
2023-04-24T04:22:47.644Z,8.90
2023-04-24T04:25:20.947Z,9.68
2023-04-24T04:27:52.462Z,11.23
2023-04-24T04:30:20.123Z,10.55
2023-04-24T04:32:53.349Z,9.65
2023-04-24T04:35:23.153Z,9.75
2023-04-24T04:37:52.712Z,9.93
2023-04-24T04:40:34.212Z,9.60
2023-04-24T04:43:05.590Z,9.70
2023-04-24T04:45:41.404Z,12.23
2023-04-24T04:48:44.182Z,11.55
2023-04-24T04:51:11.465Z,9.38
2023-04-24T04:53:38.817Z,8.55
2023-04-24T04:56:06.557Z,10.20
2023-04-24T04:58:51.863Z,7.13
2023-04-24T05:01:20.231Z,8.73
2023-04-24T05:03:49.095Z,7.45
2023-04-24T05:06:18.451Z,8.35
2023-04-24T05:08:46.976Z,8.48
2023-04-24T05:11:29.534Z,9.40
2023-04-24T05:13:57.683Z,9.95
2023-04-24T05:16:33.830Z,8.52
2023-04-24T05:19:02.118Z,8.00
2023-04-24T05:21:34.715Z,7.90
2023-04-24T05:24:02.253Z,7.32
2023-04-24T05:26:44.889Z,9.15
2023-04-24T05:29:14.252Z,7.55
2023-04-24T05:31:42.918Z,8.68
2023-04-24T05:34:11.244Z,6.78
2023-04-24T05:36:42.219Z,8.98
2023-04-24T05:39:09.814Z,6.63
2023-04-24T05:41:37.199Z,6.72
2023-04-24T05:44:04.624Z,7.07
2023-04-24T05:46:32.748Z,8.20
2023-04-24T05:49:02.114Z,9.00
2023-04-24T05:51:30.116Z,5.78
2023-04-24T05:53:57.100Z,5.30
2023-04-24T05:56:25.117Z,7.50
2023-04-24T05:58:52.630Z,6.03
2023-04-24T06:01:21.060Z,5.47
2023-04-24T06:03:55.449Z,7.15
2023-04-24T06:06:23.583Z,7.30
2023-04-24T06:08:51.412Z,5.45
2023-04-24T06:11:18.480Z,6.47
2023-04-24T06:13:46.128Z,4.75
2023-04-24T06:16:44.937Z,5.43
2023-04-24T06:19:27.175Z,5.32
2023-04-24T06:21:55.959Z,6.35
2023-04-24T06:24:23.593Z,5.53
2023-04-24T06:26:52.846Z,4.93
2023-04-24T06:29:20.239Z,4.43
2023-04-24T06:31:47.700Z,6.03
2023-04-24T06:34:15.036Z,4.75
2023-04-24T06:36:43.207Z,3.90
2023-04-24T06:39:11.213Z,3.25
2023-04-24T06:41:38.963Z,5.20
2023-04-24T06:44:06.570Z,4.28
2023-04-24T06:46:34.108Z,3.50
2023-04-24T06:49:01.786Z,4.05
2023-04-24T06:51:29.510Z,2.97
2023-04-24T06:54:00.165Z,3.60
2023-04-24T06:56:28.203Z,2.97
2023-04-24T06:58:55.838Z,4.45
2023-04-24T07:01:24.062Z,2.72
2023-04-24T07:03:51.963Z,4.20
2023-04-24T07:06:22.404Z,2.88
2023-04-24T07:08:50.025Z,4.30
2023-04-24T07:11:17.491Z,2.65
2023-04-24T07:13:45.562Z,3.33
2023-04-24T07:16:13.252Z,4.25
2023-04-24T07:18:41.018Z,4.45
2023-04-24T07:21:09.304Z,3.22
2023-04-24T07:23:36.569Z,3.55
2023-04-24T07:26:06.496Z,3.95
2023-04-24T07:28:33.966Z,4.95
2023-04-24T07:31:01.619Z,3.00
2023-04-24T07:33:48.300Z,3.70
2023-04-24T07:36:20.226Z,4.40
2023-04-24T07:38:47.536Z,3.33
2023-04-24T07:41:16.841Z,3.17
2023-04-24T07:43:44.560Z,3.97
2023-04-24T07:46:12.365Z,3.85
2023-04-24T07:48:39.837Z,3.33
2023-04-24T07:51:07.174Z,3.90
2023-04-24T07:53:34.284Z,3.78
2023-04-24T07:56:01.221Z,2.97
2023-04-24T07:58:28.933Z,2.90
2023-04-24T08:00:56.074Z,4.65
2023-04-24T08:03:23.582Z,2.92
2023-04-24T08:05:52.298Z,2.10
2023-04-24T08:08:23.257Z,2.15
2023-04-24T08:10:50.655Z,1.90
2023-04-24T08:13:18.032Z,1.90
2023-04-24T08:15:44.853Z,5.30
2023-04-24T08:18:13.615Z,3.28
2023-04-24T08:20:40.910Z,2.30
2023-04-24T08:23:08.117Z,1.70
2023-04-24T08:25:36.538Z,1.88
2023-04-24T08:28:05.365Z,2.58
2023-04-24T08:30:33.137Z,3.50
2023-04-24T08:33:00.472Z,2.83
2023-04-24T08:35:28.078Z,4.03
2023-04-24T08:37:55.020Z,1.88
2023-04-24T08:40:32.460Z,1.50
2023-04-24T08:43:01.078Z,2.25
2023-04-24T08:45:31.947Z,3.00
2023-04-24T08:47:59.965Z,3.50
2023-04-24T08:50:28.939Z,3.22
2023-04-24T08:52:57.116Z,2.25
2023-04-24T08:55:26.144Z,2.78
2023-04-24T08:57:54.972Z,1.80
2023-04-24T09:00:23.114Z,3.63
2023-04-24T09:02:52.090Z,1.42
2023-04-24T09:05:20.185Z,1.25
2023-04-24T09:07:53.918Z,1.77
2023-04-24T09:10:22.289Z,2.25
2023-04-24T09:12:53.868Z,2.42
2023-04-24T09:15:23.827Z,1.98
2023-04-24T09:17:51.387Z,3.22
2023-04-24T09:20:18.686Z,2.83
2023-04-24T09:22:46.620Z,4.18
2023-04-24T09:25:14.246Z,1.90
2023-04-24T09:27:46.530Z,2.22
2023-04-24T09:30:14.768Z,1.98
2023-04-24T09:32:43.209Z,2.20
2023-04-24T09:35:10.847Z,2.65
2023-04-24T09:37:40.575Z,2.72
2023-04-24T09:40:22.013Z,1.73
2023-04-24T09:42:55.115Z,3.45
2023-04-24T09:45:22.322Z,2.55
2023-04-24T09:47:55.085Z,2.97
2023-04-24T09:50:22.867Z,2.03
2023-04-24T09:53:03.060Z,1.85
2023-04-24T09:55:30.904Z,1.80
2023-04-24T09:58:01.552Z,2.10
2023-04-24T10:00:34.149Z,12.10
2023-04-24T10:03:03.588Z,1.80
2023-04-24T10:05:39.792Z,2.45
2023-04-24T10:08:09.556Z,1.67
2023-04-24T10:10:42.619Z,1.92
2023-04-24T10:13:14.227Z,3.00
2023-04-24T10:15:42.398Z,2.42
2023-04-24T10:18:10.299Z,1.60
2023-04-24T10:20:39.443Z,1.52
2023-04-24T10:23:07.280Z,1.92
2023-04-24T10:25:38.070Z,2.25
2023-04-24T10:28:08.381Z,1.52
2023-04-24T10:30:39.799Z,1.52
2023-04-24T10:33:10.765Z,2.60
2023-04-24T10:35:45.705Z,2.10
2023-04-24T10:38:15.536Z,3.00
2023-04-24T10:40:44.623Z,2.40
2023-04-24T10:43:12.610Z,2.67
2023-04-24T10:45:40.052Z,3.75
2023-04-24T10:48:12.538Z,3.92
2023-04-24T10:50:49.462Z,3.30
2023-04-24T10:53:22.070Z,1.80
2023-04-24T10:55:51.441Z,3.58
2023-04-24T10:58:23.795Z,3.17
2023-04-24T11:01:01.576Z,2.67
2023-04-24T11:03:34.354Z,2.63
2023-04-24T11:06:09.953Z,2.17
2023-04-24T11:08:45.196Z,2.42
2023-04-24T11:11:18.302Z,1.90
2023-04-24T11:13:58.015Z,3.20
2023-04-24T11:16:31.078Z,1.73
2023-04-24T11:19:09.578Z,1.40
2023-04-24T11:21:44.239Z,1.67
2023-04-24T11:24:32.060Z,2.38
2023-04-24T11:27:07.861Z,2.30
2023-04-24T11:29:57.400Z,1.63
2023-04-24T11:32:34.839Z,2.95
2023-04-24T11:35:25.966Z,1.63
2023-04-24T11:40:28.102Z,3.30
2023-04-24T11:43:00.768Z,2.05
2023-04-24T11:45:31.003Z,2.00
2023-04-24T11:47:58.522Z,2.35
2023-04-24T11:50:29.106Z,1.52
2023-04-24T11:52:57.205Z,3.20
2023-04-24T11:55:29.829Z,2.50
2023-04-24T11:57:59.753Z,2.65
2023-04-24T12:00:28.825Z,2.47
2023-04-24T12:03:13.478Z,1.98
2023-04-24T12:05:41.806Z,3.15
2023-04-24T12:08:09.609Z,1.77
2023-04-24T12:10:37.044Z,1.95
2023-04-24T12:13:04.559Z,1.55
2023-04-24T12:15:32.255Z,2.28
2023-04-24T12:17:59.999Z,2.45
2023-04-24T12:20:32.897Z,1.73
2023-04-24T12:23:03.619Z,1.33
2023-04-24T12:25:32.714Z,1.92
2023-04-24T12:28:06.316Z,2.20
2023-04-24T12:30:36.684Z,2.10
2023-04-24T12:33:04.857Z,2.50
2023-04-24T12:35:35.080Z,1.63
2023-04-24T12:38:15.924Z,1.73
2023-04-24T12:40:44.067Z,1.45
2023-04-24T12:43:16.603Z,2.20
2023-04-24T12:45:44.806Z,1.77
2023-04-24T12:48:12.636Z,2.30
2023-04-24T12:50:40.307Z,1.40
2023-04-24T12:53:09.240Z,1.58
2023-04-24T12:55:37.153Z,2.15
2023-04-24T12:58:04.567Z,4.80
2023-04-24T13:00:32.545Z,1.70
2023-04-24T13:05:48.743Z,1.50
2023-04-24T13:08:16.417Z,2.15
2023-04-24T13:10:43.834Z,3.50
2023-04-24T13:13:11.219Z,2.70
2023-04-24T13:15:38.179Z,3.42
2023-04-24T13:18:06.249Z,3.33
2023-04-24T13:20:33.792Z,1.80
2023-04-24T13:23:01.330Z,3.22
2023-04-24T13:25:29.462Z,2.10
2023-04-24T13:27:56.726Z,2.35
2023-04-24T13:30:24.387Z,3.50
2023-04-24T13:32:51.819Z,1.88
2023-04-24T13:35:19.397Z,2.00
2023-04-24T13:37:46.509Z,2.20
2023-04-24T13:40:13.785Z,2.60
2023-04-24T13:42:41.249Z,2.25
2023-04-24T13:45:17.816Z,2.10
2023-04-24T13:47:52.597Z,3.42
2023-04-24T13:50:21.846Z,2.47
2023-04-24T13:52:48.789Z,3.30
2023-04-24T13:55:15.863Z,2.00
2023-04-24T13:57:43.563Z,3.17
2023-04-24T14:00:12.463Z,2.80
2023-04-24T14:02:40.397Z,2.42
2023-04-24T14:05:07.907Z,2.60
2023-04-24T14:07:34.977Z,2.17
2023-04-24T14:10:02.333Z,4.38
2023-04-24T14:12:30.277Z,3.25
2023-04-24T14:14:58.591Z,2.92
2023-04-24T14:17:26.127Z,1.77
2023-04-24T14:19:57.041Z,1.55
2023-04-24T14:22:24.601Z,2.33
2023-04-24T14:24:54.271Z,2.53
2023-04-24T14:27:22.548Z,1.67
2023-04-24T14:29:50.091Z,2.88
2023-04-24T14:32:17.352Z,1.73
2023-04-24T14:34:44.496Z,1.67
2023-04-24T14:37:12.518Z,1.83
2023-04-24T14:39:39.612Z,2.03
2023-04-24T14:42:07.622Z,1.90
2023-04-24T14:44:35.133Z,1.63
2023-04-24T14:47:02.636Z,2.45
2023-04-24T14:49:31.384Z,1.92
2023-04-24T14:51:58.617Z,3.13
2023-04-24T14:54:27.192Z,3.38
2023-04-24T14:56:56.200Z,4.20
2023-04-24T14:59:23.630Z,1.88
2023-04-24T15:02:01.876Z,2.17
2023-04-24T15:04:36.765Z,3.25
2023-04-24T15:07:04.041Z,1.95
2023-04-24T15:09:33.790Z,1.85
2023-04-24T15:12:03.524Z,2.20
2023-04-24T15:14:34.312Z,3.05
2023-04-24T15:17:03.234Z,3.17
2023-04-24T15:19:33.430Z,2.42
2023-04-24T15:22:01.238Z,2.17
2023-04-24T15:24:29.570Z,1.20
2023-04-24T15:27:00.610Z,2.20
2023-04-24T15:29:28.675Z,1.20
2023-04-24T15:31:56.592Z,1.65
2023-04-24T15:34:23.331Z,2.17
2023-04-24T15:36:50.336Z,2.92
2023-04-24T15:39:17.842Z,2.92
2023-04-24T15:41:45.253Z,1.80
2023-04-24T15:44:12.501Z,2.97
2023-04-24T15:46:39.666Z,3.42
2023-04-24T15:49:07.008Z,2.08
2023-04-24T15:51:34.506Z,3.22
2023-04-24T15:54:02.052Z,3.65
2023-04-24T15:56:31.426Z,2.75
2023-04-24T15:58:59.476Z,4.72
2023-04-24T16:01:27.259Z,2.10
2023-04-24T16:03:55.067Z,4.07
2023-04-24T16:06:22.398Z,5.90
2023-04-24T16:08:49.505Z,8.25
2023-04-24T16:11:17.166Z,7.55
2023-04-24T16:13:44.243Z,5.43
2023-04-24T16:16:12.447Z,3.05
2023-04-24T16:18:39.893Z,4.28
2023-04-24T16:21:09.953Z,3.78
2023-04-24T16:23:37.581Z,3.55
2023-04-24T16:26:06.514Z,3.75
2023-04-24T16:28:34.023Z,3.75
2023-04-24T16:31:01.917Z,5.88
2023-04-24T16:33:30.153Z,3.70
2023-04-24T16:35:58.248Z,7.07
2023-04-24T16:38:26.786Z,6.03
2023-04-24T16:40:55.150Z,6.90
2023-04-24T16:43:22.563Z,7.82
2023-04-24T16:45:51.127Z,7.43
2023-04-24T16:48:21.008Z,6.57
2023-04-24T16:50:50.414Z,10.02
2023-04-24T16:53:18.855Z,8.50
2023-04-24T16:55:46.657Z,6.68
2023-04-24T16:58:14.874Z,6.03
2023-04-24T17:00:42.554Z,4.55
2023-04-24T17:03:12.440Z,4.57
2023-04-24T17:05:41.736Z,6.65
2023-04-24T17:08:08.852Z,5.68
2023-04-24T17:10:36.838Z,5.38
2023-04-24T17:13:06.023Z,5.47
2023-04-24T17:15:36.636Z,5.95
2023-04-24T17:18:06.307Z,4.85
2023-04-24T17:20:35.069Z,7.13
2023-04-24T17:23:02.871Z,3.35
2023-04-24T17:25:30.363Z,7.32
2023-04-24T17:27:58.767Z,6.55
2023-04-24T17:30:26.685Z,9.52
2023-04-24T17:32:53.569Z,23.83
2023-04-24T17:35:22.801Z,23.35
2023-04-24T17:37:50.184Z,21.50
2023-04-24T17:40:17.708Z,17.77
2023-04-24T17:42:47.390Z,17.85
2023-04-24T17:45:14.833Z,10.13
2023-04-24T17:47:42.727Z,7.78
2023-04-24T17:50:10.454Z,7.50
2023-04-24T17:52:38.358Z,8.70
2023-04-24T17:55:06.319Z,12.25
2023-04-24T17:57:33.672Z,6.47
2023-04-24T18:00:00.669Z,7.65
2023-04-24T18:02:27.895Z,11.45
2023-04-24T18:04:55.853Z,11.10
2023-04-24T18:07:23.405Z,10.35
2023-04-24T18:09:50.624Z,8.85
2023-04-24T18:12:18.228Z,7.38
2023-04-24T18:14:45.095Z,9.63
2023-04-24T18:17:12.512Z,10.55
2023-04-24T18:19:39.561Z,8.18
2023-04-24T18:22:08.556Z,5.93
2023-04-24T18:24:36.282Z,9.70
2023-04-24T18:27:04.223Z,8.13
2023-04-24T18:29:31.786Z,6.63
2023-04-24T18:31:59.054Z,9.63
2023-04-24T18:34:26.596Z,12.40
2023-04-24T18:36:54.696Z,9.80
2023-04-24T18:39:23.087Z,14.07
2023-04-24T18:41:50.746Z,11.88
2023-04-24T18:44:18.822Z,11.95
2023-04-24T18:46:45.870Z,9.70
2023-04-24T18:49:13.289Z,12.82
2023-04-24T18:51:53.182Z,13.93
2023-04-24T18:54:21.637Z,10.73
2023-04-24T18:56:48.902Z,12.32
2023-04-24T18:59:17.341Z,9.90
2023-04-24T19:01:44.747Z,8.27
2023-04-24T19:04:12.780Z,12.85
2023-04-24T19:06:41.250Z,16.73
2023-04-24T19:09:08.468Z,9.05
2023-04-24T19:11:37.049Z,5.55
2023-04-24T19:14:04.645Z,4.68
2023-04-24T19:16:32.581Z,4.40
2023-04-24T19:18:59.920Z,7.50
2023-04-24T19:21:28.454Z,4.95
2023-04-24T19:23:57.094Z,5.10
2023-04-24T19:26:26.057Z,4.90
2023-04-24T19:28:57.871Z,4.85
2023-04-24T19:31:25.663Z,4.27
2023-04-24T19:33:53.067Z,3.90
2023-04-24T19:36:20.449Z,5.70
2023-04-24T19:38:48.010Z,5.00
2023-04-24T19:41:15.308Z,4.82
2023-04-24T19:43:42.344Z,5.90
2023-04-24T19:46:10.005Z,3.67
2023-04-24T19:48:37.108Z,3.70
2023-04-24T19:51:05.019Z,3.83
2023-04-24T19:53:33.497Z,3.05
2023-04-24T19:56:00.906Z,3.78
2023-04-24T19:58:30.708Z,3.20
2023-04-24T20:00:58.532Z,2.47
2023-04-24T20:03:33.532Z,3.92
2023-04-24T20:06:01.658Z,4.03
2023-04-24T20:08:28.651Z,3.30
2023-04-24T20:10:58.201Z,3.38
2023-04-24T20:13:28.190Z,3.15
2023-04-24T20:15:55.951Z,3.75
2023-04-24T20:18:23.287Z,3.05
2023-04-24T20:20:54.227Z,4.00
2023-04-24T20:23:21.478Z,5.65
2023-04-24T20:25:50.488Z,3.55
2023-04-24T20:28:18.634Z,3.22
2023-04-24T20:30:46.165Z,3.38
2023-04-24T20:33:13.424Z,4.40
2023-04-24T20:35:40.897Z,3.00
2023-04-24T20:38:11.010Z,4.20
2023-04-24T20:40:50.136Z,3.83
2023-04-24T20:43:29.137Z,3.17
2023-04-24T20:45:58.444Z,3.92
2023-04-24T20:48:26.979Z,3.47
2023-04-24T20:51:00.046Z,3.40
2023-04-24T20:53:27.397Z,3.13
2023-04-24T20:55:54.748Z,3.45
2023-04-24T20:58:23.169Z,3.28
2023-04-24T21:00:51.383Z,5.15
2023-04-24T21:03:18.707Z,3.78
2023-04-24T21:05:55.216Z,4.28
2023-04-24T21:08:22.531Z,4.78
2023-04-24T21:10:49.910Z,3.92
2023-04-24T21:13:17.202Z,4.07
2023-04-24T21:15:44.218Z,3.17
2023-04-24T21:18:11.260Z,3.70
2023-04-24T21:20:38.356Z,4.95
2023-04-24T21:23:05.442Z,3.08
2023-04-24T21:25:33.004Z,5.47
2023-04-24T21:28:00.933Z,3.92
2023-04-24T21:30:28.175Z,5.15
2023-04-24T21:32:58.415Z,5.63
2023-04-24T21:35:28.408Z,4.22
2023-04-24T21:37:55.794Z,4.47
2023-04-24T21:40:23.139Z,4.55
2023-04-24T21:42:52.144Z,4.05
2023-04-24T21:45:19.680Z,3.75
2023-04-24T21:47:46.965Z,5.78
2023-04-24T21:50:14.509Z,5.63
2023-04-24T21:52:41.797Z,7.82
2023-04-24T21:55:09.308Z,5.32
2023-04-24T21:57:36.243Z,7.50
2023-04-24T22:00:03.657Z,4.43
2023-04-24T22:02:32.287Z,5.88
2023-04-24T22:05:03.513Z,4.53
2023-04-24T22:07:31.082Z,4.68
2023-04-24T22:09:58.513Z,3.35
2023-04-24T22:12:25.644Z,3.35
2023-04-24T22:14:52.843Z,3.65
2023-04-24T22:17:19.950Z,5.15
2023-04-24T22:19:47.462Z,4.43
2023-04-24T22:22:14.614Z,3.75
2023-04-24T22:24:42.104Z,3.25
2023-04-24T22:27:09.444Z,4.07
2023-04-24T22:29:36.776Z,3.55
2023-04-24T22:32:04.225Z,5.65
2023-04-24T22:34:31.672Z,5.47
2023-04-24T22:36:59.201Z,8.73
2023-04-24T22:39:26.451Z,9.75
2023-04-24T22:41:53.965Z,10.02
2023-04-24T22:44:21.831Z,10.02
2023-04-24T22:46:49.334Z,6.97
2023-04-24T22:49:16.603Z,7.68
2023-04-24T22:51:44.279Z,10.18
2023-04-24T22:54:11.635Z,13.85
2023-04-24T22:56:41.820Z,27.38
2023-04-24T22:59:09.256Z,37.05
2023-04-24T23:01:36.584Z,33.30
2023-04-24T23:04:03.707Z,32.83
2023-04-24T23:06:31.177Z,18.13
2023-04-24T23:08:59.937Z,14.55
2023-04-24T23:11:27.957Z,13.50
2023-04-24T23:13:55.208Z,10.40
2023-04-24T23:16:23.243Z,10.02
2023-04-24T23:18:50.171Z,9.80
2023-04-24T23:21:17.641Z,9.27
2023-04-24T23:23:44.988Z,8.65
2023-04-24T23:26:12.117Z,7.82
2023-04-24T23:28:40.742Z,6.38
2023-04-24T23:31:11.008Z,9.38
2023-04-24T23:33:38.540Z,9.98
2023-04-24T23:36:06.640Z,7.80
2023-04-24T23:38:43.232Z,7.90
2023-04-24T23:43:43.950Z,17.55
2023-04-24T23:46:11.594Z,14.27
2023-04-24T23:48:38.779Z,8.32
2023-04-24T23:51:06.230Z,8.82
2023-04-24T23:53:33.445Z,8.18
2023-04-24T23:56:00.605Z,9.85
2023-04-24T23:58:27.633Z,9.45
